sensor_id;sensor_type;location;lat;lon;timestamp;pressure;altitude;pressure_sealevel;temperature;humidity
61345;BME280;47216;42.656;23.232;2024-01-11T00:00:01;94771.81;;;-6.01;70.09
61345;BME280;47216;42.656;23.232;2024-01-11T00:02:33;94776.47;;;-6.06;70.78
61345;BME280;47216;42.656;23.232;2024-01-11T00:05:02;94766.09;;;-6.03;70.41
61345;BME280;47216;42.656;23.232;2024-01-11T00:07:30;94765.06;;;-5.91;70.15
61345;BME280;47216;42.656;23.232;2024-01-11T00:09:58;94760.66;;;-5.88;70.27
61345;BME280;47216;42.656;23.232;2024-01-11T00:12:29;94764.03;;;-5.78;70.05
61345;BME280;47216;42.656;23.232;2024-01-11T00:14:57;94763.81;;;-5.75;69.91
61345;BME280;47216;42.656;23.232;2024-01-11T00:17:26;94758.06;;;-5.77;69.75
61345;BME280;47216;42.656;23.232;2024-01-11T00:19:55;94759.91;;;-5.79;69.44
61345;BME280;47216;42.656;23.232;2024-01-11T00:22:23;94763.81;;;-5.75;70.13
61345;BME280;47216;42.656;23.232;2024-01-11T00:24:50;94765.41;;;-5.74;69.64
61345;BME280;47216;42.656;23.232;2024-01-11T00:27:18;94760.06;;;-5.71;69.41
61345;BME280;47216;42.656;23.232;2024-01-11T00:29:51;94750.97;;;-5.74;69.70
61345;BME280;47216;42.656;23.232;2024-01-11T00:32:21;94752.44;;;-5.71;70.04
61345;BME280;47216;42.656;23.232;2024-01-11T00:34:49;94755.00;;;-5.71;69.91
61345;BME280;47216;42.656;23.232;2024-01-11T00:37:19;94753.41;;;-5.72;69.48
61345;BME280;47216;42.656;23.232;2024-01-11T00:39:47;94745.78;;;-5.72;69.67
61345;BME280;47216;42.656;23.232;2024-01-11T00:42:14;94747.00;;;-5.66;69.54
61345;BME280;47216;42.656;23.232;2024-01-11T00:44:41;94749.41;;;-5.65;69.94
61345;BME280;47216;42.656;23.232;2024-01-11T00:47:15;94749.41;;;-5.65;69.09
61345;BME280;47216;42.656;23.232;2024-01-11T00:49:44;94744.94;;;-5.52;69.28
61345;BME280;47216;42.656;23.232;2024-01-11T00:52:12;94744.59;;;-5.68;69.28
61345;BME280;47216;42.656;23.232;2024-01-11T00:54:40;94733.34;;;-5.75;69.43
61345;BME280;47216;42.656;23.232;2024-01-11T00:57:08;94742.44;;;-5.73;69.21
61345;BME280;47216;42.656;23.232;2024-01-11T00:59:36;94734.13;;;-5.75;69.48
61345;BME280;47216;42.656;23.232;2024-01-11T01:02:07;94736.59;;;-5.63;70.01
61345;BME280;47216;42.656;23.232;2024-01-11T01:04:39;94735.78;;;-5.64;69.60
61345;BME280;47216;42.656;23.232;2024-01-11T01:07:10;94732.22;;;-5.61;69.00
61345;BME280;47216;42.656;23.232;2024-01-11T01:09:39;94730.81;;;-5.75;69.25
61345;BME280;47216;42.656;23.232;2024-01-11T01:12:10;94735.56;;;-5.82;68.95
61345;BME280;47216;42.656;23.232;2024-01-11T01:14:40;94740.56;;;-6.01;69.96
61345;BME280;47216;42.656;23.232;2024-01-11T01:17:09;94731.94;;;-6.10;70.15
61345;BME280;47216;42.656;23.232;2024-01-11T01:19:37;94728.81;;;-6.23;70.60
61345;BME280;47216;42.656;23.232;2024-01-11T01:22:08;94728.53;;;-6.20;70.25
61345;BME280;47216;42.656;23.232;2024-01-11T01:24:36;94726.44;;;-6.15;70.29
61345;BME280;47216;42.656;23.232;2024-01-11T01:27:05;94726.22;;;-6.12;70.95
61345;BME280;47216;42.656;23.232;2024-01-11T01:29:37;94727.00;;;-6.11;70.99
61345;BME280;47216;42.656;23.232;2024-01-11T01:32:07;94723.84;;;-6.04;70.25
61345;BME280;47216;42.656;23.232;2024-01-11T01:34:39;94723.56;;;-6.01;70.52
61345;BME280;47216;42.656;23.232;2024-01-11T01:37:09;94717.16;;;-6.05;69.94
61345;BME280;47216;42.656;23.232;2024-01-11T01:39:38;94718.75;;;-6.04;70.34
61345;BME280;47216;42.656;23.232;2024-01-11T01:42:07;94718.44;;;-6.10;69.73
61345;BME280;47216;42.656;23.232;2024-01-11T01:44:38;94706.81;;;-6.13;70.13
61345;BME280;47216;42.656;23.232;2024-01-11T01:47:09;94702.16;;;-6.08;70.31
61345;BME280;47216;42.656;23.232;2024-01-11T01:49:43;94697.97;;;-5.98;70.51
61345;BME280;47216;42.656;23.232;2024-01-11T01:52:16;94694.75;;;-6.00;70.20
61345;BME280;47216;42.656;23.232;2024-01-11T01:54:45;94695.28;;;-5.96;70.32
61345;BME280;47216;42.656;23.232;2024-01-11T01:57:15;94692.88;;;-5.98;70.16
61345;BME280;47216;42.656;23.232;2024-01-11T01:59:46;94687.63;;;-6.06;70.99
61345;BME280;47216;42.656;23.232;2024-01-11T02:02:19;94676.31;;;-5.92;70.62
61345;BME280;47216;42.656;23.232;2024-01-11T02:04:48;94678.47;;;-5.87;70.79
61345;BME280;47216;42.656;23.232;2024-01-11T02:07:19;94675.38;;;-5.91;70.14
61345;BME280;47216;42.656;23.232;2024-01-11T02:09:52;94676.34;;;-5.82;70.52
61345;BME280;47216;42.656;23.232;2024-01-11T02:12:22;94675.47;;;-5.72;70.38
61345;BME280;47216;42.656;23.232;2024-01-11T02:14:54;94678.31;;;-5.65;69.60
61345;BME280;47216;42.656;23.232;2024-01-11T02:17:23;94678.03;;;-5.62;69.42
61345;BME280;47216;42.656;23.232;2024-01-11T02:19:53;94672.44;;;-5.56;69.63
61345;BME280;47216;42.656;23.232;2024-01-11T02:22:26;94667.50;;;-5.57;69.83
61345;BME280;47216;42.656;23.232;2024-01-11T02:24:58;94672.16;;;-5.62;69.45
61345;BME280;47216;42.656;23.232;2024-01-11T02:27:27;94673.72;;;-5.71;69.65
61345;BME280;47216;42.656;23.232;2024-01-11T02:30:00;94676.94;;;-5.69;70.13
61345;BME280;47216;42.656;23.232;2024-01-11T02:32:37;94669.41;;;-5.80;69.55
61345;BME280;47216;42.656;23.232;2024-01-11T02:35:12;94669.16;;;-5.77;69.50
61345;BME280;47216;42.656;23.232;2024-01-11T02:37:51;94669.03;;;-5.76;69.74
61345;BME280;47216;42.656;23.232;2024-01-11T02:40:27;94663.31;;;-5.68;69.49
61345;BME280;47216;42.656;23.232;2024-01-11T02:43:09;94667.38;;;-5.56;70.06
61345;BME280;47216;42.656;23.232;2024-01-11T02:45:39;94660.84;;;-5.49;69.72
61345;BME280;47216;42.656;23.232;2024-01-11T02:48:15;94648.97;;;-5.38;69.80
61345;BME280;47216;42.656;23.232;2024-01-11T02:50:50;94650.59;;;-5.18;69.01
61345;BME280;47216;42.656;23.232;2024-01-11T02:53:31;94649.56;;;-4.96;68.85
61345;BME280;47216;42.656;23.232;2024-01-11T02:56:03;94646.63;;;-4.91;68.76
61345;BME280;47216;42.656;23.232;2024-01-11T02:58:35;94641.94;;;-4.86;68.13
61345;BME280;47216;42.656;23.232;2024-01-11T03:01:08;94649.72;;;-4.68;67.57
61345;BME280;47216;42.656;23.232;2024-01-11T03:03:38;94646.38;;;-4.69;67.44
61345;BME280;47216;42.656;23.232;2024-01-11T03:06:08;94647.84;;;-4.56;67.05
61345;BME280;47216;42.656;23.232;2024-01-11T03:08:37;94648.38;;;-4.53;66.69
61345;BME280;47216;42.656;23.232;2024-01-11T03:11:10;94648.25;;;-4.61;66.25
61345;BME280;47216;42.656;23.232;2024-01-11T03:13:39;94651.19;;;-4.85;66.52
61345;BME280;47216;42.656;23.232;2024-01-11T03:16:12;94654.13;;;-4.99;67.21
61345;BME280;47216;42.656;23.232;2024-01-11T03:18:44;94652.91;;;-4.95;66.96
61345;BME280;47216;42.656;23.232;2024-01-11T03:21:14;94641.56;;;-5.01;67.04
61345;BME280;47216;42.656;23.232;2024-01-11T03:23:49;94647.44;;;-5.00;67.03
61345;BME280;47216;42.656;23.232;2024-01-11T03:26:25;94641.66;;;-5.02;67.10
61345;BME280;47216;42.656;23.232;2024-01-11T03:28:55;94642.34;;;-5.00;66.61
61345;BME280;47216;42.656;23.232;2024-01-11T03:31:25;94648.75;;;-5.06;66.55
61345;BME280;47216;42.656;23.232;2024-01-11T03:33:55;94641.00;;;-5.04;66.67
61345;BME280;47216;42.656;23.232;2024-01-11T03:36:25;94637.78;;;-5.07;66.82
61345;BME280;47216;42.656;23.232;2024-01-11T03:38:55;94642.63;;;-5.03;66.80
61345;BME280;47216;42.656;23.232;2024-01-11T03:41:26;94642.63;;;-5.03;66.66
61345;BME280;47216;42.656;23.232;2024-01-11T03:43:56;94639.41;;;-5.05;66.70
61345;BME280;47216;42.656;23.232;2024-01-11T03:46:26;94649.31;;;-5.02;66.55
61345;BME280;47216;42.656;23.232;2024-01-11T03:48:57;94639.13;;;-5.02;66.45
61345;BME280;47216;42.656;23.232;2024-01-11T03:51:26;94635.78;;;-4.93;66.31
61345;BME280;47216;42.656;23.232;2024-01-11T03:53:56;94640.47;;;-4.89;66.16
61345;BME280;47216;42.656;23.232;2024-01-11T03:56:25;94641.44;;;-4.80;65.95
61345;BME280;47216;42.656;23.232;2024-01-11T03:58:55;94629.75;;;-4.92;65.69
61345;BME280;47216;42.656;23.232;2024-01-11T04:01:24;94637.09;;;-5.09;65.49
61345;BME280;47216;42.656;23.232;2024-01-11T04:03:52;94630.28;;;-5.18;66.04
61345;BME280;47216;42.656;23.232;2024-01-11T04:06:23;94625.47;;;-5.21;66.06
61345;BME280;47216;42.656;23.232;2024-01-11T04:08:53;94627.59;;;-5.26;66.00
61345;BME280;47216;42.656;23.232;2024-01-11T04:11:23;94614.22;;;-5.28;66.52
61345;BME280;47216;42.656;23.232;2024-01-11T04:14:00;94613.69;;;-5.22;66.44
61345;BME280;47216;42.656;23.232;2024-01-11T04:16:32;94608.88;;;-5.15;66.44
61345;BME280;47216;42.656;23.232;2024-01-11T04:19:01;94605.00;;;-5.10;66.28
61345;BME280;47216;42.656;23.232;2024-01-11T04:21:30;94609.13;;;-5.09;65.55
61345;BME280;47216;42.656;23.232;2024-01-11T04:24:00;94605.13;;;-5.01;65.70
61345;BME280;47216;42.656;23.232;2024-01-11T04:26:35;94602.19;;;-4.97;65.56
61345;BME280;47216;42.656;23.232;2024-01-11T04:29:09;94606.22;;;-4.84;65.35
61345;BME280;47216;42.656;23.232;2024-01-11T04:31:42;94602.47;;;-4.90;64.95
61345;BME280;47216;42.656;23.232;2024-01-11T04:34:16;94610.38;;;-4.93;65.02
61345;BME280;47216;42.656;23.232;2024-01-11T04:36:46;94613.44;;;-4.99;65.10
61345;BME280;47216;42.656;23.232;2024-01-11T04:39:22;94614.50;;;-5.12;65.35
61345;BME280;47216;42.656;23.232;2024-01-11T04:41:56;94619.31;;;-5.09;65.32
61345;BME280;47216;42.656;23.232;2024-01-11T04:44:27;94618.25;;;-5.16;65.18
61345;BME280;47216;42.656;23.232;2024-01-11T04:46:56;94620.94;;;-5.17;65.43
61345;BME280;47216;42.656;23.232;2024-01-11T04:49:25;94621.97;;;-5.20;65.64
61345;BME280;47216;42.656;23.232;2024-01-11T04:51:57;94620.66;;;-5.24;65.70
61345;BME280;47216;42.656;23.232;2024-01-11T04:54:27;94628.78;;;-5.30;65.81
61345;BME280;47216;42.656;23.232;2024-01-11T04:56:55;94630.13;;;-5.36;66.13
61345;BME280;47216;42.656;23.232;2024-01-11T04:59:25;94622.22;;;-5.33;66.33
61345;BME280;47216;42.656;23.232;2024-01-11T05:01:58;94609.66;;;-5.34;66.28
61345;BME280;47216;42.656;23.232;2024-01-11T05:04:28;94623.19;;;-5.34;65.85
61345;BME280;47216;42.656;23.232;2024-01-11T05:06:58;94623.56;;;-5.38;65.77
61345;BME280;47216;42.656;23.232;2024-01-11T05:09:26;94624.91;;;-5.34;65.78
61345;BME280;47216;42.656;23.232;2024-01-11T05:11:55;94614.22;;;-5.38;65.98
61345;BME280;47216;42.656;23.232;2024-01-11T05:14:28;94621.44;;;-5.33;65.67
61345;BME280;47216;42.656;23.232;2024-01-11T05:16:59;94621.28;;;-5.41;65.62
61345;BME280;47216;42.656;23.232;2024-01-11T05:19:28;94611.38;;;-5.44;65.43
61345;BME280;47216;42.656;23.232;2024-01-11T05:21:58;94616.84;;;-5.49;66.08
61345;BME280;47216;42.656;23.232;2024-01-11T05:24:26;94603.47;;;-5.61;65.75
61345;BME280;47216;42.656;23.232;2024-01-11T05:26:55;94601.94;;;-5.73;66.45
61345;BME280;47216;42.656;23.232;2024-01-11T05:29:26;94606.09;;;-5.72;66.59
61345;BME280;47216;42.656;23.232;2024-01-11T05:31:59;94595.00;;;-5.71;66.63
61345;BME280;47216;42.656;23.232;2024-01-11T05:34:27;94591.78;;;-5.73;66.40
61345;BME280;47216;42.656;23.232;2024-01-11T05:36:55;94606.38;;;-5.75;66.31
61345;BME280;47216;42.656;23.232;2024-01-11T05:39:28;94604.47;;;-5.73;66.37
61345;BME280;47216;42.656;23.232;2024-01-11T05:42:00;94600.16;;;-5.82;66.11
61345;BME280;47216;42.656;23.232;2024-01-11T05:44:31;94590.16;;;-5.84;66.71
61345;BME280;47216;42.656;23.232;2024-01-11T05:47:01;94590.28;;;-5.85;66.71
61345;BME280;47216;42.656;23.232;2024-01-11T05:49:31;94593.00;;;-5.77;66.78
61345;BME280;47216;42.656;23.232;2024-01-11T05:52:00;94588.44;;;-5.74;66.86
61345;BME280;47216;42.656;23.232;2024-01-11T05:54:29;94591.13;;;-5.75;66.48
61345;BME280;47216;42.656;23.232;2024-01-11T05:56:57;94585.09;;;-5.74;66.28
61345;BME280;47216;42.656;23.232;2024-01-11T05:59:25;94574.69;;;-5.71;66.16
61345;BME280;47216;42.656;23.232;2024-01-11T06:01:53;94574.69;;;-5.71;66.17
61345;BME280;47216;42.656;23.232;2024-01-11T06:04:27;94566.53;;;-5.65;66.62
61345;BME280;47216;42.656;23.232;2024-01-11T06:06:58;94567.91;;;-5.61;66.94
61345;BME280;47216;42.656;23.232;2024-01-11T06:09:26;94566.44;;;-5.54;67.56
61345;BME280;47216;42.656;23.232;2024-01-11T06:11:55;94571.00;;;-5.38;66.43
61345;BME280;47216;42.656;23.232;2024-01-11T06:14:25;94562.44;;;-5.27;66.66
61345;BME280;47216;42.656;23.232;2024-01-11T06:16:56;94568.88;;;-5.13;66.03
61345;BME280;47216;42.656;23.232;2024-01-11T06:19:30;94559.91;;;-5.08;65.75
61345;BME280;47216;42.656;23.232;2024-01-11T06:21:59;94564.44;;;-5.01;65.66
61345;BME280;47216;42.656;23.232;2024-01-11T06:24:30;94563.78;;;-4.94;65.25
61345;BME280;47216;42.656;23.232;2024-01-11T06:26:58;94565.25;;;-4.91;64.81
61345;BME280;47216;42.656;23.232;2024-01-11T06:29:30;94564.06;;;-4.87;64.93
61345;BME280;47216;42.656;23.232;2024-01-11T06:31:58;94558.97;;;-4.87;64.75
61345;BME280;47216;42.656;23.232;2024-01-11T06:34:30;94564.72;;;-4.85;64.70
61345;BME280;47216;42.656;23.232;2024-01-11T06:37:00;94563.38;;;-4.89;64.50
61345;BME280;47216;42.656;23.232;2024-01-11T06:39:29;94556.16;;;-4.94;64.47
61345;BME280;47216;42.656;23.232;2024-01-11T06:41:59;94559.09;;;-4.89;64.62
61345;BME280;47216;42.656;23.232;2024-01-11T06:44:29;94553.47;;;-4.92;64.70
61345;BME280;47216;42.656;23.232;2024-01-11T06:46:58;94548.81;;;-4.87;64.86
61345;BME280;47216;42.656;23.232;2024-01-11T06:49:34;94542.78;;;-4.96;64.53
61345;BME280;47216;42.656;23.232;2024-01-11T06:52:06;94543.31;;;-5.02;65.24
61345;BME280;47216;42.656;23.232;2024-01-11T06:54:34;94544.91;;;-4.91;65.62
61345;BME280;47216;42.656;23.232;2024-01-11T06:57:03;94545.97;;;-4.74;65.74
61345;BME280;47216;42.656;23.232;2024-01-11T06:59:33;94561.75;;;-4.61;65.49
61345;BME280;47216;42.656;23.232;2024-01-11T07:02:01;94551.53;;;-4.51;65.26
61345;BME280;47216;42.656;23.232;2024-01-11T07:04:34;94548.59;;;-4.47;65.05
61345;BME280;47216;42.656;23.232;2024-01-11T07:07:04;94551.53;;;-4.51;65.16
61345;BME280;47216;42.656;23.232;2024-01-11T07:09:34;94556.88;;;-4.45;65.43
61345;BME280;47216;42.656;23.232;2024-01-11T07:12:02;94557.81;;;-4.36;65.37
61345;BME280;47216;42.656;23.232;2024-01-11T07:14:32;94558.19;;;-4.31;65.71
61345;BME280;47216;42.656;23.232;2024-01-11T07:17:02;94557.47;;;-4.23;65.59
61345;BME280;47216;42.656;23.232;2024-01-11T07:19:35;94550.25;;;-4.18;65.68
61345;BME280;47216;42.656;23.232;2024-01-11T07:22:05;94550.13;;;-4.26;66.04
61345;BME280;47216;42.656;23.232;2024-01-11T07:24:33;94549.34;;;-4.27;66.38
61345;BME280;47216;42.656;23.232;2024-01-11T07:27:05;94545.72;;;-4.24;66.54
61345;BME280;47216;42.656;23.232;2024-01-11T07:29:36;94542.38;;;-4.25;66.66
61345;BME280;47216;42.656;23.232;2024-01-11T07:32:06;94534.06;;;-4.27;66.69
61345;BME280;47216;42.656;23.232;2024-01-11T07:34:37;94532.56;;;-4.19;66.83
61345;BME280;47216;42.656;23.232;2024-01-11T07:37:09;94537.66;;;-3.92;66.70
61345;BME280;47216;42.656;23.232;2024-01-11T07:39:41;94536.09;;;-3.75;66.42
61345;BME280;47216;42.656;23.232;2024-01-11T07:42:13;94541.53;;;-3.60;66.27
61345;BME280;47216;42.656;23.232;2024-01-11T07:44:43;94534.97;;;-3.45;65.94
61345;BME280;47216;42.656;23.232;2024-01-11T07:47:15;94534.50;;;-3.30;65.45
61345;BME280;47216;42.656;23.232;2024-01-11T07:49:48;94539.78;;;-3.06;65.27
61345;BME280;47216;42.656;23.232;2024-01-11T07:52:17;94530.03;;;-2.92;64.37
61345;BME280;47216;42.656;23.232;2024-01-11T07:54:45;94534.81;;;-2.89;64.55
61345;BME280;47216;42.656;23.232;2024-01-11T07:57:13;94536.84;;;-2.75;63.95
61345;BME280;47216;42.656;23.232;2024-01-11T07:59:41;94530.16;;;-2.76;64.32
61345;BME280;47216;42.656;23.232;2024-01-11T08:02:09;94527.16;;;-2.89;64.62
61345;BME280;47216;42.656;23.232;2024-01-11T08:04:38;94529.63;;;-2.80;64.88
61345;BME280;47216;42.656;23.232;2024-01-11T08:07:07;94520.59;;;-2.74;65.24
61345;BME280;47216;42.656;23.232;2024-01-11T08:09:35;94534.03;;;-2.64;64.83
61345;BME280;47216;42.656;23.232;2024-01-11T08:12:02;94528.94;;;-2.64;64.67
61345;BME280;47216;42.656;23.232;2024-01-11T08:14:30;94521.25;;;-2.72;64.66
61345;BME280;47216;42.656;23.232;2024-01-11T08:16:58;94519.56;;;-2.63;65.44
61345;BME280;47216;42.656;23.232;2024-01-11T08:19:27;94520.13;;;-2.43;64.10
61345;BME280;47216;42.656;23.232;2024-01-11T08:21:57;94517.09;;;-2.47;64.36
61345;BME280;47216;42.656;23.232;2024-01-11T08:24:27;94518.50;;;-2.53;64.40
61345;BME280;47216;42.656;23.232;2024-01-11T08:26:56;94517.75;;;-2.45;64.61
61345;BME280;47216;42.656;23.232;2024-01-11T08:29:23;94513.00;;;-2.32;64.54
61345;BME280;47216;42.656;23.232;2024-01-11T08:31:50;94501.47;;;-2.09;64.35
61345;BME280;47216;42.656;23.232;2024-01-11T08:34:17;94510.16;;;-1.94;63.51
61345;BME280;47216;42.656;23.232;2024-01-11T08:36:44;94508.75;;;-1.88;63.13
61345;BME280;47216;42.656;23.232;2024-01-11T08:39:12;94506.19;;;-1.80;63.12
61345;BME280;47216;42.656;23.232;2024-01-11T08:41:42;94516.28;;;-1.87;63.22
61345;BME280;47216;42.656;23.232;2024-01-11T08:44:10;94509.84;;;-1.91;62.72
61345;BME280;47216;42.656;23.232;2024-01-11T08:46:39;94517.19;;;-1.96;63.47
61345;BME280;47216;42.656;23.232;2024-01-11T08:49:06;94513.34;;;-1.92;62.96
61345;BME280;47216;42.656;23.232;2024-01-11T08:51:34;94510.84;;;-1.76;62.50
61345;BME280;47216;42.656;23.232;2024-01-11T08:54:02;94509.25;;;-1.77;62.49
61345;BME280;47216;42.656;23.232;2024-01-11T08:56:29;94505.44;;;-1.64;62.28
61345;BME280;47216;42.656;23.232;2024-01-11T08:58:58;94501.34;;;-1.49;62.11
61345;BME280;47216;42.656;23.232;2024-01-11T09:01:24;94499.78;;;-1.34;62.25
61345;BME280;47216;42.656;23.232;2024-01-11T09:03:51;94494.00;;;-1.28;61.82
61345;BME280;47216;42.656;23.232;2024-01-11T09:06:18;94481.88;;;-1.25;61.39
61345;BME280;47216;42.656;23.232;2024-01-11T09:08:45;94481.72;;;-1.24;61.82
61345;BME280;47216;42.656;23.232;2024-01-11T09:11:12;94487.00;;;-1.17;60.75
61345;BME280;47216;42.656;23.232;2024-01-11T09:13:39;94483.47;;;-1.16;60.91
61345;BME280;47216;42.656;23.232;2024-01-11T09:16:07;94470.38;;;-1.21;61.32
61345;BME280;47216;42.656;23.232;2024-01-11T09:18:34;94470.69;;;-1.08;60.66
61345;BME280;47216;42.656;23.232;2024-01-11T09:21:02;94471.66;;;-1.01;60.69
61345;BME280;47216;42.656;23.232;2024-01-11T09:23:29;94473.88;;;-0.90;60.77
61345;BME280;47216;42.656;23.232;2024-01-11T09:25:56;94469.38;;;-0.79;60.34
61345;BME280;47216;42.656;23.232;2024-01-11T09:28:24;94467.47;;;-0.77;60.24
61345;BME280;47216;42.656;23.232;2024-01-11T09:30:51;94458.97;;;-0.70;61.17
61345;BME280;47216;42.656;23.232;2024-01-11T09:33:19;94455.59;;;-0.62;60.65
61345;BME280;47216;42.656;23.232;2024-01-11T09:35:47;94451.59;;;-0.56;61.03
61345;BME280;47216;42.656;23.232;2024-01-11T09:38:14;94445.31;;;-0.46;60.77
61345;BME280;47216;42.656;23.232;2024-01-11T09:40:41;94441.78;;;-0.36;61.07
61345;BME280;47216;42.656;23.232;2024-01-11T09:43:10;94437.22;;;-0.18;59.82
61345;BME280;47216;42.656;23.232;2024-01-11T09:45:37;94436.53;;;-0.12;59.26
61345;BME280;47216;42.656;23.232;2024-01-11T09:48:07;94427.41;;;-0.06;58.44
61345;BME280;47216;42.656;23.232;2024-01-11T09:50:38;94418.34;;;0.06;58.86
61345;BME280;47216;42.656;23.232;2024-01-11T09:53:10;94415.28;;;0.11;58.30
61345;BME280;47216;42.656;23.232;2024-01-11T09:55:38;94413.81;;;0.16;58.07
61345;BME280;47216;42.656;23.232;2024-01-11T09:58:06;94409.53;;;0.09;58.17
61345;BME280;47216;42.656;23.232;2024-01-11T10:00:35;94402.75;;;0.16;58.09
61345;BME280;47216;42.656;23.232;2024-01-11T10:03:02;94402.72;;;0.24;57.75
61345;BME280;47216;42.656;23.232;2024-01-11T10:05:29;94400.00;;;0.26;58.23
61345;BME280;47216;42.656;23.232;2024-01-11T10:07:59;94389.72;;;0.26;58.31
61345;BME280;47216;42.656;23.232;2024-01-11T10:10:27;94388.91;;;0.25;58.22
61345;BME280;47216;42.656;23.232;2024-01-11T10:12:58;94378.97;;;0.30;57.76
61345;BME280;47216;42.656;23.232;2024-01-11T10:16:09;94373.66;;;0.32;57.66
61345;BME280;47216;42.656;23.232;2024-01-11T10:19:08;94363.09;;;0.27;58.38
61345;BME280;47216;42.656;23.232;2024-01-11T10:21:41;94367.44;;;0.26;58.42
61345;BME280;47216;42.656;23.232;2024-01-11T10:24:17;94363.22;;;0.33;58.36
61345;BME280;47216;42.656;23.232;2024-01-11T10:26:47;94360.06;;;0.46;58.40
61345;BME280;47216;42.656;23.232;2024-01-11T10:29:14;94357.63;;;0.53;58.56
61345;BME280;47216;42.656;23.232;2024-01-11T10:31:41;94350.66;;;0.61;58.17
61345;BME280;47216;42.656;23.232;2024-01-11T10:34:07;94346.63;;;0.67;58.04
61345;BME280;47216;42.656;23.232;2024-01-11T10:36:35;94337.31;;;0.66;58.07
61345;BME280;47216;42.656;23.232;2024-01-11T10:39:03;94336.25;;;0.60;58.15
61345;BME280;47216;42.656;23.232;2024-01-11T10:41:38;94334.22;;;0.71;58.21
61345;BME280;47216;42.656;23.232;2024-01-11T10:44:08;94329.66;;;0.81;57.80
61345;BME280;47216;42.656;23.232;2024-01-11T10:46:39;94330.25;;;0.83;57.83
61345;BME280;47216;42.656;23.232;2024-01-11T10:49:17;94325.50;;;0.95;57.17
61345;BME280;47216;42.656;23.232;2024-01-11T10:51:49;94319.66;;;1.01;57.29
61345;BME280;47216;42.656;23.232;2024-01-11T10:54:19;94309.03;;;1.04;56.92
61345;BME280;47216;42.656;23.232;2024-01-11T10:56:48;94311.88;;;1.09;57.13
61345;BME280;47216;42.656;23.232;2024-01-11T10:59:16;94305.31;;;1.21;57.30
61345;BME280;47216;42.656;23.232;2024-01-11T11:01:45;94291.47;;;1.22;57.57
61345;BME280;47216;42.656;23.232;2024-01-11T11:04:13;94295.66;;;1.23;57.44
61345;BME280;47216;42.656;23.232;2024-01-11T11:06:41;94283.84;;;1.29;57.67
61345;BME280;47216;42.656;23.232;2024-01-11T11:09:10;94277.47;;;1.40;57.47
61345;BME280;47216;42.656;23.232;2024-01-11T11:11:38;94273.91;;;1.41;57.51
61345;BME280;47216;42.656;23.232;2024-01-11T11:14:08;94274.44;;;1.51;57.65
61345;BME280;47216;42.656;23.232;2024-01-11T11:16:36;94267.34;;;1.53;57.18
61345;BME280;47216;42.656;23.232;2024-01-11T11:19:03;94266.09;;;1.49;56.61
61345;BME280;47216;42.656;23.232;2024-01-11T11:21:31;94266.47;;;1.46;56.25
61345;BME280;47216;42.656;23.232;2024-01-11T11:24:00;94248.75;;;1.51;57.06
61345;BME280;47216;42.656;23.232;2024-01-11T11:26:26;94246.41;;;1.56;57.38
61345;BME280;47216;42.656;23.232;2024-01-11T11:28:54;94239.81;;;1.68;56.77
61345;BME280;47216;42.656;23.232;2024-01-11T11:31:36;94230.75;;;1.73;56.69
61345;BME280;47216;42.656;23.232;2024-01-11T11:34:06;94229.97;;;1.72;56.28
61345;BME280;47216;42.656;23.232;2024-01-11T11:36:36;94225.22;;;1.69;56.33
61345;BME280;47216;42.656;23.232;2024-01-11T11:39:03;94217.91;;;1.73;56.44
61345;BME280;47216;42.656;23.232;2024-01-11T11:41:30;94216.81;;;1.82;56.86
61345;BME280;47216;42.656;23.232;2024-01-11T11:44:00;94208.38;;;1.88;56.07
61345;BME280;47216;42.656;23.232;2024-01-11T11:46:28;94207.81;;;1.93;56.40
61345;BME280;47216;42.656;23.232;2024-01-11T11:48:58;94200.50;;;1.96;56.17
61345;BME280;47216;42.656;23.232;2024-01-11T11:51:26;94205.31;;;1.99;55.92
61345;BME280;47216;42.656;23.232;2024-01-11T11:53:53;94208.34;;;2.09;56.88
61345;BME280;47216;42.656;23.232;2024-01-11T11:56:21;94196.97;;;1.97;56.01
61345;BME280;47216;42.656;23.232;2024-01-11T11:58:49;94204.34;;;1.79;56.27
61345;BME280;47216;42.656;23.232;2024-01-11T12:01:18;94200.72;;;1.73;57.85
61345;BME280;47216;42.656;23.232;2024-01-11T12:03:48;94194.06;;;1.79;58.23
61345;BME280;47216;42.656;23.232;2024-01-11T12:06:20;94187.69;;;1.75;58.82
61345;BME280;47216;42.656;23.232;2024-01-11T12:08:49;94184.63;;;1.86;58.49
61345;BME280;47216;42.656;23.232;2024-01-11T12:11:19;94189.03;;;1.92;58.25
61345;BME280;47216;42.656;23.232;2024-01-11T12:13:48;94180.59;;;1.77;58.62
61345;BME280;47216;42.656;23.232;2024-01-11T12:16:16;94182.91;;;1.50;59.10
61345;BME280;47216;42.656;23.232;2024-01-11T12:18:43;94170.31;;;1.55;59.74
61345;BME280;47216;42.656;23.232;2024-01-11T12:21:10;94162.06;;;1.60;59.43
61345;BME280;47216;42.656;23.232;2024-01-11T12:23:43;94163.09;;;1.65;60.05
61345;BME280;47216;42.656;23.232;2024-01-11T12:26:10;94160.63;;;1.79;59.99
61345;BME280;47216;42.656;23.232;2024-01-11T12:28:43;94156.34;;;1.86;59.80
61345;BME280;47216;42.656;23.232;2024-01-11T12:31:10;94146.09;;;1.64;59.11
61345;BME280;47216;42.656;23.232;2024-01-11T12:33:38;94155.81;;;1.69;59.60
61345;BME280;47216;42.656;23.232;2024-01-11T12:36:07;94141.66;;;1.80;58.79
61345;BME280;47216;42.656;23.232;2024-01-11T12:38:36;94142.03;;;2.05;58.70
61345;BME280;47216;42.656;23.232;2024-01-11T12:41:07;94138.84;;;2.03;58.40
61345;BME280;47216;42.656;23.232;2024-01-11T12:43:36;94131.28;;;2.23;58.79
61345;BME280;47216;42.656;23.232;2024-01-11T12:46:03;94142.25;;;2.38;58.69
61345;BME280;47216;42.656;23.232;2024-01-11T12:48:31;94124.44;;;2.37;58.54
61345;BME280;47216;42.656;23.232;2024-01-11T12:50:59;94131.41;;;2.49;58.38
61345;BME280;47216;42.656;23.232;2024-01-11T12:53:26;94124.72;;;2.55;58.53
61345;BME280;47216;42.656;23.232;2024-01-11T12:56:04;94128.47;;;2.52;58.62
61345;BME280;47216;42.656;23.232;2024-01-11T12:58:35;94125.69;;;2.54;57.83
61345;BME280;47216;42.656;23.232;2024-01-11T13:01:04;94120.59;;;2.61;58.54
61345;BME280;47216;42.656;23.232;2024-01-11T13:03:34;94111.44;;;2.51;57.16
61345;BME280;47216;42.656;23.232;2024-01-11T13:06:05;94103.34;;;2.55;57.96